Time;durP1;ratioP1;P1;durP2;ratioP2;P2;SDS_P1;SDS_P2;PMS_P1;PMS_P2;Temp;Humidity;BMP_temperature;BMP_pressure;BME280_temperature;BME280_humidity;BME280_pressure;Samples;Min_cycle;Max_cycle;Signal;HPM_P1;HPM_P2
2021/06/02 00:01:03;;;;;;;9.07;7.50;;;;;;;;;;4996489;28;20285;-81
2021/06/02 00:32:21;;;;;;;11.63;8.37;;;;;;;;;;994597;26;20490;-80
2021/06/02 00:35:03;;;;;;;11.50;7.60;;;;;;;;;;5053791;28;20200;-80
2021/06/02 00:44:12;;;;;;;9.30;8.50;;;;;;;;;;5023724;28;20656;-81
2021/06/02 00:49:54;;;;;;;10.57;8.90;;;;;;;;;;5031777;28;20593;-81
2021/06/02 00:59:33;;;;;;;10.73;8.27;;;;;;;;;;4950346;28;20215;-82
2021/06/02 01:02:33;;;;;;;;;;;;;;;;;;;;;
2021/06/02 01:05:09;;;;;;;8.53;7.63;;;;;;;;;;5029372;28;20216;-82
2021/06/02 01:10:32;;;;;;;9.10;8.03;;;;;;;;;;5006384;28;20229;-81
2021/06/02 01:13:26;;;;;;;12.50;8.10;;;;;;;;;;5017710;28;20246;-81
2021/06/02 01:16:21;;;;;;;10.40;8.43;;;;;;;;;;5033689;28;20240;-81
2021/06/02 01:19:05;;;;;;;9.53;8.63;;;;;;;;;;5032575;28;20615;-81
2021/06/02 01:24:47;;;;;;;12.27;9.37;;;;;;;;;;5011724;28;20707;-81
2021/06/02 01:36:39;;;;;;;;;;;;;;;;;;;;;
2021/06/02 01:54:04;;;;;;;13.43;11.23;;;;;;;;;;4968782;28;20229;-81
2021/06/02 01:57:04;;;;;;;;;;;;;;;;;;;;;
2021/06/02 02:09:48;;;;;;;13.77;12.27;;;;;;;;;;4990243;28;20225;-81
2021/06/02 02:15:36;;;;;;;12.70;11.40;;;;;;;;;;4904181;29;20224;-81
2021/06/02 02:18:44;;;;;;;12.60;11.27;;;;;;;;;;4913006;29;20204;-81
2021/06/02 02:41:03;;;;;;;8.97;7.77;;;;;;;;;;4179652;22;20614;-81
2021/06/02 02:46:59;;;;;;;8.50;7.70;;;;;;;;;;5046172;28;20313;-81
2021/06/02 03:01:17;;;;;;;8.80;6.97;;;;;;;;;;5085461;28;20695;-81
2021/06/02 03:07:37;;;;;;;7.77;6.97;;;;;;;;;;5025549;28;20315;-81
2021/06/02 03:13:23;;;;;;;8.47;7.57;;;;;;;;;;5000149;28;20670;-82
2021/06/02 03:15:58;;;;;;;7.63;6.80;;;;;;;;;;5026112;28;20207;-81
2021/06/02 03:25:02;;;;;;;11.00;7.90;;;;;;;;;;5023363;28;20294;-81
2021/06/02 03:36:42;;;;;;;9.83;8.33;;;;;;;;;;5014719;28;20632;-81
2021/06/02 03:42:41;;;;;;;9.27;8.47;;;;;;;;;;5014450;28;20487;-81
2021/06/02 03:54:54;;;;;;;9.77;8.77;;;;;;;;;;5024099;28;20204;-81
2021/06/02 04:00:37;;;;;;;10.50;8.90;;;;;;;;;;5029081;28;20220;-81
2021/06/02 04:06:32;;;;;;;9.70;8.73;;;;;;;;;;5035009;28;20203;-81
2021/06/02 04:09:25;;;;;;;9.93;8.80;;;;;;;;;;5014244;28;20225;-81
2021/06/02 04:12:28;;;;;;;12.13;9.20;;;;;;;;;;5068746;22;20617;-81
2021/06/02 04:36:04;;;;;;;9.60;8.60;;;;;;;;;;4934767;29;20744;-82
2021/06/02 04:38:57;;;;;;;8.73;7.90;;;;;;;;;;4952240;29;20199;-82
2021/06/02 04:41:40;;;;;;;9.97;8.83;;;;;;;;;;4952053;29;20211;-82
2021/06/02 04:53:33;;;;;;;;;;;;;;;;;;;;;
2021/06/02 05:42:40;;;;;;;10.60;9.17;;;;;;;;;;4907225;29;20280;-80
2021/06/02 05:48:56;;;;;;;14.00;9.93;;;;;;;;;;4942604;29;20234;-81
2021/06/02 05:54:40;;;;;;;13.83;10.43;;;;;;;;;;5444649;22;20369;-78
2021/06/02 05:57:34;;;;;;;12.67;10.23;;;;;;;;;;4970256;28;20241;-75
2021/06/02 06:00:24;;;;;;;12.53;9.70;;;;;;;;;;4964659;28;20580;-76
2021/06/02 06:03:07;;;;;;;13.77;10.47;;;;;;;;;;4957544;28;20238;-75
2021/06/02 06:05:42;;;;;;;11.70;9.63;;;;;;;;;;4970473;28;20315;-77
2021/06/02 06:08:26;;;;;;;13.27;9.80;;;;;;;;;;4966145;28;20751;-77
2021/06/02 06:11:11;;;;;;;10.93;9.73;;;;;;;;;;4961625;28;20238;-76
2021/06/02 06:14:03;;;;;;;11.93;10.20;;;;;;;;;;4969676;28;20203;-78
2021/06/02 06:16:40;;;;;;;11.40;9.43;;;;;;;;;;4965918;28;20286;-77
2021/06/02 06:19:27;;;;;;;13.67;10.37;;;;;;;;;;4959711;28;20280;-78
2021/06/02 06:22:03;;;;;;;13.97;10.87;;;;;;;;;;4961676;28;20203;-78
2021/06/02 06:24:32;;;;;;;11.20;9.60;;;;;;;;;;4959885;28;20237;-77
2021/06/02 06:27:03;;;;;;;12.07;10.13;;;;;;;;;;4955099;28;20683;-76
2021/06/02 06:29:34;;;;;;;14.10;10.30;;;;;;;;;;4962364;28;20223;-77
2021/06/02 06:32:02;;;;;;;12.70;10.47;;;;;;;;;;4969337;28;20750;-78
2021/06/02 06:34:33;;;;;;;12.20;9.67;;;;;;;;;;4965020;28;20276;-77
2021/06/02 06:37:00;;;;;;;14.30;11.07;;;;;;;;;;4956711;28;20223;-77
2021/06/02 06:39:30;;;;;;;17.07;10.90;;;;;;;;;;4968207;28;20728;-77
2021/06/02 06:41:57;;;;;;;14.10;11.20;;;;;;;;;;4968230;28;20279;-77
2021/06/02 06:44:25;;;;;;;16.73;11.87;;;;;;;;;;4967723;28;20293;-76
2021/06/02 06:46:54;;;;;;;11.77;10.30;;;;;;;;;;4958096;28;20235;-77
2021/06/02 06:49:23;;;;;;;14.30;11.07;;;;;;;;;;4955249;28;20358;-78
2021/06/02 06:51:52;;;;;;;12.97;11.47;;;;;;;;;;4972535;28;20203;-78
2021/06/02 06:54:19;;;;;;;15.37;10.77;;;;;;;;;;4971903;28;20307;-78
2021/06/02 06:56:47;;;;;;;13.70;11.20;;;;;;;;;;4960169;28;20736;-78
2021/06/02 06:59:15;;;;;;;14.77;11.40;;;;;;;;;;4968878;28;20209;-78
2021/06/02 07:01:42;;;;;;;14.17;12.30;;;;;;;;;;4972369;28;20274;-77
2021/06/02 07:04:10;;;;;;;13.80;11.87;;;;;;;;;;4967898;28;20680;-78
2021/06/02 07:06:37;;;;;;;13.83;12.17;;;;;;;;;;4971047;28;20233;-77
2021/06/02 07:09:05;;;;;;;15.50;12.77;;;;;;;;;;4960574;28;20343;-78
2021/06/02 07:11:37;;;;;;;13.47;12.10;;;;;;;;;;4959436;28;20195;-77
2021/06/02 07:14:04;;;;;;;13.60;12.27;;;;;;;;;;4955876;28;20258;-78
2021/06/02 07:16:31;;;;;;;16.93;12.50;;;;;;;;;;4972004;28;20264;-78
2021/06/02 07:18:59;;;;;;;16.57;12.40;;;;;;;;;;4976580;28;20617;-78
2021/06/02 07:21:28;;;;;;;14.23;12.10;;;;;;;;;;4975357;28;20202;-78
2021/06/02 07:23:55;;;;;;;15.37;13.17;;;;;;;;;;4963311;28;20241;-78
2021/06/02 07:26:22;;;;;;;17.80;13.43;;;;;;;;;;4962252;28;20683;-78
2021/06/02 07:28:49;;;;;;;17.87;13.53;;;;;;;;;;4960478;28;20617;-77
2021/06/02 07:31:16;;;;;;;16.03;14.00;;;;;;;;;;4964866;28;20222;-78
2021/06/02 07:33:44;;;;;;;16.53;13.87;;;;;;;;;;4976038;28;20339;-78
2021/06/02 07:36:11;;;;;;;17.17;15.17;;;;;;;;;;4975846;28;20203;-78
2021/06/02 07:38:41;;;;;;;16.27;14.47;;;;;;;;;;4972636;28;20226;-78
2021/06/02 07:41:08;;;;;;;17.07;14.83;;;;;;;;;;4963777;28;20732;-78
2021/06/02 07:43:35;;;;;;;17.53;15.20;;;;;;;;;;4975397;28;20738;-78
2021/06/02 07:46:01;;;;;;;16.43;14.73;;;;;;;;;;4972500;28;20709;-78
2021/06/02 07:48:28;;;;;;;17.37;15.30;;;;;;;;;;4966577;28;20305;-79
2021/06/02 07:50:55;;;;;;;19.83;15.27;;;;;;;;;;4971592;28;20739;-78
2021/06/02 07:53:22;;;;;;;16.77;14.67;;;;;;;;;;4956507;28;20203;-78
2021/06/02 07:55:50;;;;;;;16.90;14.93;;;;;;;;;;4957840;28;20270;-78
2021/06/02 07:58:16;;;;;;;17.37;15.20;;;;;;;;;;4974938;28;20236;-78
2021/06/02 08:00:43;;;;;;;17.03;15.27;;;;;;;;;;4972757;28;20222;-77
2021/06/02 08:03:10;;;;;;;17.00;14.53;;;;;;;;;;4956723;28;20506;-77
2021/06/02 08:05:37;;;;;;;16.87;15.07;;;;;;;;;;4956524;29;20234;-77
2021/06/02 08:08:04;;;;;;;15.20;13.60;;;;;;;;;;4958946;28;20213;-77
2021/06/02 08:10:30;;;;;;;16.63;14.83;;;;;;;;;;4975804;28;20222;-78
2021/06/02 08:13:01;;;;;;;17.87;15.07;;;;;;;;;;4975897;28;20285;-77
2021/06/02 08:15:28;;;;;;;16.77;15.03;;;;;;;;;;4973912;28;20199;-77
2021/06/02 08:17:55;;;;;;;16.90;15.20;;;;;;;;;;4974828;28;20203;-78
2021/06/02 08:20:21;;;;;;;18.67;15.20;;;;;;;;;;4966525;28;20299;-78
2021/06/02 08:22:48;;;;;;;16.27;14.57;;;;;;;;;;4964363;28;20234;-78
2021/06/02 08:25:16;;;;;;;16.48;14.80;;;;;;;;;;4959024;28;20298;-78
2021/06/02 08:27:43;;;;;;;15.73;14.13;;;;;;;;;;4960763;28;20238;-78
2021/06/02 08:30:12;;;;;;;15.02;13.52;;;;;;;;;;4972872;28;20218;-78
2021/06/02 08:32:40;;;;;;;15.98;14.38;;;;;;;;;;4959033;28;20230;-78
2021/06/02 08:35:07;;;;;;;15.43;13.85;;;;;;;;;;4962114;28;20788;-78
2021/06/02 08:37:34;;;;;;;15.43;13.43;;;;;;;;;;4968178;28;20637;-78
2021/06/02 08:40:00;;;;;;;14.43;12.75;;;;;;;;;;4964112;28;20202;-79
2021/06/02 08:42:27;;;;;;;13.70;12.18;;;;;;;;;;4964683;28;20685;-78
2021/06/02 08:44:54;;;;;;;13.02;11.80;;;;;;;;;;4966103;28;20234;-78
2021/06/02 08:47:22;;;;;;;13.38;12.07;;;;;;;;;;4968971;28;20703;-78
2021/06/02 08:49:49;;;;;;;13.18;11.93;;;;;;;;;;4966256;28;20366;-77
2021/06/02 08:52:16;;;;;;;13.27;11.63;;;;;;;;;;4955719;28;20933;-78
2021/06/02 08:54:42;;;;;;;13.07;11.77;;;;;;;;;;4969535;28;20273;-78
2021/06/02 08:57:10;;;;;;;13.82;12.25;;;;;;;;;;4962617;28;21745;-78
2021/06/02 08:59:37;;;;;;;12.75;11.50;;;;;;;;;;4961402;28;20230;-78
2021/06/02 09:02:04;;;;;;;13.10;11.82;;;;;;;;;;4964488;28;20247;-78
2021/06/02 09:04:33;;;;;;;13.20;11.13;;;;;;;;;;4973556;28;20203;-79
2021/06/02 09:07:03;;;;;;;12.88;11.35;;;;;;;;;;4973655;28;20261;-78
2021/06/02 09:09:29;;;;;;;12.88;11.45;;;;;;;;;;4960142;28;20314;-78
2021/06/02 09:11:57;;;;;;;14.52;11.88;;;;;;;;;;4966217;28;20694;-78
2021/06/02 09:14:24;;;;;;;13.73;10.75;;;;;;;;;;4960773;28;20335;-78
2021/06/02 09:16:52;;;;;;;13.73;10.80;;;;;;;;;;4970647;28;20202;-78
2021/06/02 09:19:31;;;;;;;14.02;10.68;;;;;;;;;;4956200;28;20712;-78
2021/06/02 09:22:00;;;;;;;15.55;11.20;;;;;;;;;;4972104;28;20217;-78
2021/06/02 09:24:41;;;;;;;12.23;11.02;;;;;;;;;;4962467;28;20714;-78
2021/06/02 09:27:08;;;;;;;15.30;11.63;;;;;;;;;;4970346;28;20722;-78
2021/06/02 09:29:48;;;;;;;14.20;10.85;;;;;;;;;;4962460;28;20260;-78
2021/06/02 09:32:16;;;;;;;14.05;12.48;;;;;;;;;;4970981;28;20246;-78
2021/06/02 09:34:43;;;;;;;13.60;12.20;;;;;;;;;;4964903;28;20195;-78
2021/06/02 09:37:11;;;;;;;13.43;12.07;;;;;;;;;;4963631;28;20290;-78
2021/06/02 09:39:42;;;;;;;14.43;12.32;;;;;;;;;;4955133;28;20286;-78
2021/06/02 09:42:18;;;;;;;15.32;12.32;;;;;;;;;;4962603;28;20680;-78
2021/06/02 09:44:47;;;;;;;17.05;13.50;;;;;;;;;;4967973;28;20235;-78
2021/06/02 09:47:14;;;;;;;16.83;12.77;;;;;;;;;;4961341;28;20239;-77
2021/06/02 09:49:48;;;;;;;17.98;14.90;;;;;;;;;;4965453;28;20309;-78
2021/06/02 09:52:16;;;;;;;18.77;15.18;;;;;;;;;;4955517;28;20206;-78
2021/06/02 09:54:43;;;;;;;16.33;14.65;;;;;;;;;;4968242;28;20230;-78
2021/06/02 09:57:11;;;;;;;17.20;15.02;;;;;;;;;;4958001;28;20290;-78
2021/06/02 09:59:52;;;;;;;18.92;15.90;;;;;;;;;;4951447;28;20203;-78
2021/06/02 10:02:19;;;;;;;19.42;15.57;;;;;;;;;;4956240;28;20231;-78
2021/06/02 10:04:46;;;;;;;17.27;15.55;;;;;;;;;;4968697;28;20195;-78
2021/06/02 10:07:19;;;;;;;20.45;16.45;;;;;;;;;;4957011;28;20266;-78
2021/06/02 10:09:46;;;;;;;19.13;16.65;;;;;;;;;;4956453;28;20357;-78
2021/06/02 10:12:13;;;;;;;17.85;15.30;;;;;;;;;;4972961;28;20285;-78
2021/06/02 10:14:40;;;;;;;18.35;16.45;;;;;;;;;;4969013;28;20199;-78
2021/06/02 10:17:22;;;;;;;18.17;16.27;;;;;;;;;;4964800;28;20241;-78
2021/06/02 10:19:48;;;;;;;21.20;16.38;;;;;;;;;;4957196;28;20243;-78
2021/06/02 10:22:21;;;;;;;20.50;16.25;;;;;;;;;;4963267;28;20551;-78
2021/06/02 10:24:48;;;;;;;17.40;15.53;;;;;;;;;;4961290;28;20234;-78
2021/06/02 10:27:15;;;;;;;20.93;16.20;;;;;;;;;;4954404;28;20230;-78
2021/06/02 10:29:42;;;;;;;19.30;15.53;;;;;;;;;;4968733;28;20274;-78
2021/06/02 10:32:09;;;;;;;19.40;16.60;;;;;;;;;;4968250;28;20260;-78
2021/06/02 10:34:35;;;;;;;18.70;16.73;;;;;;;;;;4970639;28;20206;-78
2021/06/02 10:37:02;;;;;;;20.77;16.05;;;;;;;;;;4958998;28;20207;-78
2021/06/02 10:39:32;;;;;;;17.23;15.07;;;;;;;;;;4953725;29;20330;-78
2021/06/02 10:42:01;;;;;;;19.17;15.70;;;;;;;;;;4963567;28;20206;-78
2021/06/02 10:44:30;;;;;;;20.30;16.50;;;;;;;;;;4963208;28;20758;-78
2021/06/02 10:46:58;;;;;;;19.27;16.53;;;;;;;;;;4967406;28;20234;-78
2021/06/02 10:49:28;;;;;;;18.00;15.20;;;;;;;;;;4967400;28;20687;-77
2021/06/02 10:51:56;;;;;;;17.20;15.03;;;;;;;;;;4971451;28;20202;-78
2021/06/02 10:54:34;;;;;;;18.40;15.60;;;;;;;;;;4975812;28;20237;-78
2021/06/02 10:57:16;;;;;;;17.67;14.37;;;;;;;;;;4978835;28;20220;-77
2021/06/02 10:59:43;;;;;;;18.37;13.70;;;;;;;;;;4969327;28;20199;-77
2021/06/02 11:02:11;;;;;;;15.17;12.83;;;;;;;;;;4975917;28;20297;-77
2021/06/02 11:04:39;;;;;;;16.23;13.07;;;;;;;;;;4970086;28;20202;-79
2021/06/02 11:07:15;;;;;;;15.47;12.63;;;;;;;;;;4965042;28;20209;-77
2021/06/02 11:10:03;;;;;;;17.07;13.40;;;;;;;;;;4974037;28;20226;-78
2021/06/02 11:12:57;;;;;;;16.40;13.77;;;;;;;;;;4968216;28;20194;-76
2021/06/02 11:15:25;;;;;;;19.30;14.07;;;;;;;;;;4976115;28;20226;-79
2021/06/02 11:18:07;;;;;;;17.87;14.73;;;;;;;;;;4974078;28;20198;-77
2021/06/02 11:20:40;;;;;;;19.90;14.63;;;;;;;;;;4969427;28;20640;-79
2021/06/02 11:23:08;;;;;;;19.90;14.97;;;;;;;;;;4974319;28;21693;-78
2021/06/02 11:25:35;;;;;;;18.70;15.07;;;;;;;;;;4968486;28;20686;-78
2021/06/02 11:28:04;;;;;;;24.57;16.30;;;;;;;;;;4969458;28;20235;-78
2021/06/02 11:30:31;;;;;;;18.23;15.27;;;;;;;;;;4973080;28;20737;-79
2021/06/02 11:33:12;;;;;;;23.07;15.37;;;;;;;;;;4969307;28;20198;-80
2021/06/02 11:35:55;;;;;;;19.93;14.57;;;;;;;;;;4964766;28;20290;-79
2021/06/02 11:38:22;;;;;;;18.37;14.30;;;;;;;;;;4964205;28;20233;-78
2021/06/02 11:40:49;;;;;;;18.77;13.95;;;;;;;;;;4970445;28;20687;-79
2021/06/02 11:43:20;;;;;;;17.65;13.60;;;;;;;;;;4962491;28;20237;-79
2021/06/02 11:45:48;;;;;;;19.73;13.70;;;;;;;;;;4975183;28;20205;-79
2021/06/02 11:48:20;;;;;;;20.13;13.17;;;;;;;;;;4965502;28;20199;-79
2021/06/02 11:50:47;;;;;;;18.67;14.20;;;;;;;;;;4971065;28;20301;-79
2021/06/02 11:53:13;;;;;;;20.67;14.05;;;;;;;;;;4971857;28;20207;-78
2021/06/02 11:55:48;;;;;;;15.85;13.18;;;;;;;;;;4971383;28;20320;-82
2021/06/02 11:58:15;;;;;;;15.32;12.70;;;;;;;;;;4968947;28;20242;-81
2021/06/02 12:00:47;;;;;;;18.13;13.15;;;;;;;;;;4962634;28;20289;-83
2021/06/02 12:03:15;;;;;;;16.40;12.05;;;;;;;;;;4974445;28;20197;-83
2021/06/02 12:05:42;;;;;;;15.15;12.55;;;;;;;;;;4974995;28;20206;-82
2021/06/02 12:08:11;;;;;;;14.73;12.10;;;;;;;;;;4961886;28;20253;-83
2021/06/02 12:10:41;;;;;;;15.10;11.25;;;;;;;;;;4966756;28;20270;-83
2021/06/02 12:13:14;;;;;;;16.25;11.20;;;;;;;;;;4978166;28;20202;-83
2021/06/02 12:15:42;;;;;;;16.40;11.65;;;;;;;;;;4971715;28;20237;-83
2021/06/02 12:18:10;;;;;;;16.80;11.52;;;;;;;;;;4964567;28;20716;-82
2021/06/02 12:20:40;;;;;;;14.23;10.98;;;;;;;;;;4969157;28;20225;-83
2021/06/02 12:23:07;;;;;;;15.57;11.23;;;;;;;;;;4970578;28;20209;-81
2021/06/02 12:25:35;;;;;;;15.73;11.05;;;;;;;;;;4977223;28;20230;-82
2021/06/02 12:28:03;;;;;;;15.23;11.25;;;;;;;;;;4958514;28;20203;-83
2021/06/02 12:30:31;;;;;;;12.95;11.05;;;;;;;;;;4966694;28;20238;-83
2021/06/02 12:32:59;;;;;;;14.90;10.75;;;;;;;;;;4972846;28;20289;-82
2021/06/02 12:35:40;;;;;;;13.75;10.90;;;;;;;;;;4967750;28;20245;-82
2021/06/02 12:38:12;;;;;;;12.98;10.73;;;;;;;;;;4968941;28;20248;-83
2021/06/02 12:40:39;;;;;;;14.52;11.38;;;;;;;;;;4968152;28;20289;-82
2021/06/02 12:43:17;;;;;;;13.60;11.23;;;;;;;;;;4966750;28;20285;-83
2021/06/02 12:45:44;;;;;;;15.10;11.43;;;;;;;;;;4972219;28;20218;-83
2021/06/02 12:48:12;;;;;;;17.33;12.40;;;;;;;;;;4965198;28;20214;-83
2021/06/02 12:50:46;;;;;;;16.08;11.75;;;;;;;;;;4973136;28;20210;-82
2021/06/02 12:53:16;;;;;;;15.68;11.48;;;;;;;;;;4969125;28;20205;-83
2021/06/02 12:55:43;;;;;;;16.33;12.05;;;;;;;;;;4968741;28;20241;-81
2021/06/02 12:58:14;;;;;;;15.25;12.20;;;;;;;;;;4974375;28;20902;-83
2021/06/02 13:00:41;;;;;;;18.00;12.95;;;;;;;;;;4976141;28;20203;-83
2021/06/02 13:03:09;;;;;;;18.23;11.88;;;;;;;;;;4971693;28;20690;-82
2021/06/02 13:05:36;;;;;;;18.85;11.63;;;;;;;;;;4975107;28;20704;-82
2021/06/02 13:08:07;;;;;;;15.95;11.80;;;;;;;;;;4970254;28;20600;-83
2021/06/02 13:10:35;;;;;;;17.70;11.73;;;;;;;;;;4963724;28;20222;-82
2021/06/02 13:13:02;;;;;;;16.95;11.23;;;;;;;;;;4964231;28;20723;-83
2021/06/02 13:15:31;;;;;;;14.45;10.70;;;;;;;;;;4966656;28;20274;-83
2021/06/02 13:17:58;;;;;;;13.85;10.27;;;;;;;;;;4973238;28;20285;-82
2021/06/02 13:20:35;;;;;;;16.58;10.55;;;;;;;;;;4966549;28;20341;-83
2021/06/02 13:23:15;;;;;;;13.35;9.98;;;;;;;;;;4968444;28;20803;-81
2021/06/02 13:25:44;;;;;;;17.00;11.38;;;;;;;;;;4969955;28;20231;-82
2021/06/02 13:28:11;;;;;;;14.20;11.60;;;;;;;;;;4968072;28;21563;-82
2021/06/02 13:30:41;;;;;;;17.00;11.88;;;;;;;;;;4968146;28;20767;-83
2021/06/02 13:33:09;;;;;;;17.73;11.88;;;;;;;;;;4963701;28;20215;-82
2021/06/02 13:35:37;;;;;;;16.25;11.05;;;;;;;;;;4962215;28;20226;-83
2021/06/02 13:38:04;;;;;;;14.32;11.27;;;;;;;;;;4968542;28;20194;-84
2021/06/02 13:40:35;;;;;;;17.75;11.20;;;;;;;;;;4965548;28;20195;-83
2021/06/02 13:43:16;;;;;;;15.52;10.50;;;;;;;;;;4964550;28;20206;-83
2021/06/02 13:45:48;;;;;;;12.90;10.73;;;;;;;;;;4961970;28;20207;-83
2021/06/02 13:48:36;;;;;;;15.65;10.15;;;;;;;;;;4969597;28;20198;-83
2021/06/02 13:51:32;;;;;;;12.23;8.73;;;;;;;;;;4956124;28;20214;-81
2021/06/02 13:54:12;;;;;;;10.43;8.48;;;;;;;;;;4962401;28;20206;-82
2021/06/02 13:57:01;;;;;;;10.38;8.15;;;;;;;;;;4963337;28;20202;-81
2021/06/02 13:59:49;;;;;;;11.88;8.43;;;;;;;;;;4960947;28;20210;-83
2021/06/02 14:02:16;;;;;;;11.43;8.60;;;;;;;;;;4951090;28;20244;-84
2021/06/02 14:04:44;;;;;;;12.00;8.13;;;;;;;;;;4970016;28;20238;-84
2021/06/02 14:07:12;;;;;;;12.32;7.65;;;;;;;;;;4965199;28;20294;-83
2021/06/02 14:09:39;;;;;;;11.10;7.38;;;;;;;;;;4969240;28;20237;-83
2021/06/02 14:12:06;;;;;;;9.35;6.72;;;;;;;;;;4961360;28;20234;-85
2021/06/02 14:14:33;;;;;;;9.07;7.25;;;;;;;;;;4967024;28;20198;-83
2021/06/02 14:17:01;;;;;;;13.57;8.63;;;;;;;;;;4969172;28;20216;-83
2021/06/02 14:19:28;;;;;;;11.52;7.57;;;;;;;;;;4957092;28;20210;-83
2021/06/02 14:21:55;;;;;;;9.23;7.68;;;;;;;;;;4962764;28;20317;-82
2021/06/02 14:24:22;;;;;;;12.02;7.95;;;;;;;;;;4958353;28;20234;-80
2021/06/02 14:26:50;;;;;;;11.63;8.20;;;;;;;;;;4966839;28;20218;-82
2021/06/02 14:29:17;;;;;;;9.18;7.80;;;;;;;;;;4967236;28;20203;-82
2021/06/02 14:31:44;;;;;;;9.80;7.75;;;;;;;;;;4965164;28;20679;-81
2021/06/02 14:34:12;;;;;;;10.45;7.50;;;;;;;;;;4961921;28;20241;-81
2021/06/02 14:36:40;;;;;;;9.98;7.80;;;;;;;;;;4962904;28;20231;-82
2021/06/02 14:39:07;;;;;;;10.65;8.07;;;;;;;;;;4962542;28;20296;-82
2021/06/02 14:41:35;;;;;;;10.60;7.65;;;;;;;;;;4963038;28;20214;-81
2021/06/02 14:44:02;;;;;;;10.43;8.07;;;;;;;;;;4959234;28;20286;-81
2021/06/02 14:46:29;;;;;;;11.45;8.13;;;;;;;;;;4965642;28;20734;-81
2021/06/02 14:48:57;;;;;;;9.10;8.05;;;;;;;;;;4967280;28;20226;-81
2021/06/02 14:51:25;;;;;;;10.38;8.05;;;;;;;;;;4959628;28;20218;-82
2021/06/02 14:53:52;;;;;;;12.65;8.45;;;;;;;;;;4969519;28;20285;-83
2021/06/02 14:56:19;;;;;;;10.88;8.07;;;;;;;;;;4959260;28;20262;-83
2021/06/02 14:58:46;;;;;;;11.27;7.75;;;;;;;;;;4964647;28;20222;-83
2021/06/02 15:01:13;;;;;;;11.70;8.18;;;;;;;;;;4958433;28;20241;-82
2021/06/02 15:03:39;;;;;;;10.10;7.90;;;;;;;;;;4962358;28;20828;-83
2021/06/02 15:06:06;;;;;;;10.20;8.30;;;;;;;;;;4958353;28;20207;-82
2021/06/02 15:08:35;;;;;;;9.75;7.95;;;;;;;;;;4959919;28;20237;-82
2021/06/02 15:11:01;;;;;;;11.45;7.70;;;;;;;;;;4630794;28;10000448;-83
2021/06/02 15:13:28;;;;;;;11.55;7.32;;;;;;;;;;5005880;28;20198;-83
2021/06/02 15:15:56;;;;;;;9.25;7.22;;;;;;;;;;4997128;28;20201;-82
2021/06/02 15:18:23;;;;;;;9.80;7.50;;;;;;;;;;5004777;28;20292;-82
2021/06/02 15:20:51;;;;;;;8.40;7.00;;;;;;;;;;5000150;28;20644;-83
2021/06/02 15:23:18;;;;;;;9.05;7.03;;;;;;;;;;4990531;28;20236;-82
2021/06/02 15:25:46;;;;;;;8.15;7.28;;;;;;;;;;4993649;28;20232;-83
2021/06/02 15:28:14;;;;;;;10.25;7.25;;;;;;;;;;5002039;28;20201;-82
2021/06/02 15:30:41;;;;;;;11.32;7.03;;;;;;;;;;4993577;28;20329;-83
2021/06/02 15:33:09;;;;;;;8.48;7.13;;;;;;;;;;4992494;28;20201;-83
2021/06/02 15:35:37;;;;;;;11.63;7.63;;;;;;;;;;4994379;28;20210;-83
2021/06/02 15:38:06;;;;;;;10.00;7.18;;;;;;;;;;4985896;28;20209;-83
2021/06/02 15:40:32;;;;;;;12.25;7.47;;;;;;;;;;4999713;28;20672;-81
2021/06/02 15:43:00;;;;;;;9.63;7.55;;;;;;;;;;4995383;28;20230;-83
2021/06/02 15:45:28;;;;;;;10.13;7.30;;;;;;;;;;4973413;28;20278;-83
2021/06/02 15:47:56;;;;;;;9.95;7.50;;;;;;;;;;4964545;28;20222;-81
2021/06/02 15:50:23;;;;;;;9.93;7.68;;;;;;;;;;4967276;28;20481;-82
2021/06/02 15:52:52;;;;;;;10.00;7.68;;;;;;;;;;4969644;28;20210;-83
2021/06/02 15:55:20;;;;;;;8.95;7.45;;;;;;;;;;4974177;28;20253;-81
2021/06/02 15:57:53;;;;;;;8.82;7.10;;;;;;;;;;4971271;28;20950;-81
2021/06/02 16:00:22;;;;;;;8.73;6.95;;;;;;;;;;4966988;28;20234;-82
2021/06/02 16:02:49;;;;;;;10.88;6.97;;;;;;;;;;4962479;28;20207;-85
2021/06/02 16:05:17;;;;;;;12.48;7.28;;;;;;;;;;4970913;28;20237;-84
2021/06/02 16:07:43;;;;;;;8.77;6.88;;;;;;;;;;4957770;28;20203;-82
2021/06/02 16:10:13;;;;;;;8.57;7.03;;;;;;;;;;4973203;28;20305;-82
2021/06/02 16:12:39;;;;;;;8.30;6.95;;;;;;;;;;4972589;28;21025;-84
2021/06/02 16:15:09;;;;;;;9.15;6.82;;;;;;;;;;4961986;28;20230;-82
2021/06/02 16:17:37;;;;;;;7.68;6.70;;;;;;;;;;4970682;28;20676;-83
2021/06/02 16:20:04;;;;;;;9.90;6.65;;;;;;;;;;4963547;28;20281;-80
2021/06/02 16:22:31;;;;;;;10.93;7.00;;;;;;;;;;4962403;28;20230;-81
2021/06/02 16:24:58;;;;;;;9.70;7.20;;;;;;;;;;4968709;28;20742;-82
2021/06/02 16:27:28;;;;;;;8.90;6.85;;;;;;;;;;4972288;28;20254;-83
2021/06/02 16:29:56;;;;;;;9.10;6.97;;;;;;;;;;4964651;28;20222;-83
2021/06/02 16:32:23;;;;;;;9.95;7.78;;;;;;;;;;4969471;28;20230;-80
2021/06/02 16:34:51;;;;;;;9.52;7.25;;;;;;;;;;4971971;28;20334;-80
2021/06/02 16:37:18;;;;;;;9.23;6.75;;;;;;;;;;4972641;28;20213;-81
2021/06/02 16:39:45;;;;;;;11.25;7.80;;;;;;;;;;4966078;28;20242;-80
2021/06/02 16:42:13;;;;;;;9.60;7.35;;;;;;;;;;4965023;28;20199;-80
2021/06/02 16:44:40;;;;;;;10.35;7.95;;;;;;;;;;4967044;28;20218;-80
2021/06/02 16:47:07;;;;;;;9.02;7.32;;;;;;;;;;4963820;28;20230;-81
2021/06/02 16:49:34;;;;;;;10.38;7.50;;;;;;;;;;4962746;28;20217;-81
2021/06/02 16:52:02;;;;;;;11.15;8.23;;;;;;;;;;4967540;28;20236;-80
2021/06/02 16:54:29;;;;;;;9.27;7.07;;;;;;;;;;4961989;28;20262;-81
2021/06/02 16:56:57;;;;;;;11.70;7.90;;;;;;;;;;4963140;28;20239;-82
2021/06/02 16:59:24;;;;;;;8.82;7.38;;;;;;;;;;4960633;28;20218;-81
2021/06/02 17:01:52;;;;;;;11.20;7.38;;;;;;;;;;4961583;28;20200;-81
2021/06/02 17:04:19;;;;;;;11.93;7.35;;;;;;;;;;4964430;28;20210;-82
2021/06/02 17:06:47;;;;;;;11.88;7.40;;;;;;;;;;4967924;28;20234;-80
2021/06/02 17:09:15;;;;;;;11.63;7.88;;;;;;;;;;4964450;28;20202;-82
2021/06/02 17:11:43;;;;;;;9.48;7.75;;;;;;;;;;4962557;28;20246;-84
2021/06/02 17:14:10;;;;;;;13.80;7.57;;;;;;;;;;4965402;28;20198;-84
2021/06/02 17:16:49;;;;;;;10.00;7.28;;;;;;;;;;4962160;28;20235;-84
2021/06/02 17:19:17;;;;;;;10.77;7.45;;;;;;;;;;4966135;28;20209;-84
2021/06/02 17:22:06;;;;;;;9.75;7.25;;;;;;;;;;4970714;28;20613;-85
2021/06/02 17:24:35;;;;;;;9.15;7.80;;;;;;;;;;4968556;28;20202;-82
2021/06/02 17:27:02;;;;;;;10.25;7.20;;;;;;;;;;4972118;28;20210;-83
2021/06/02 17:29:31;;;;;;;11.45;7.60;;;;;;;;;;4967425;28;20198;-83
2021/06/02 17:31:58;;;;;;;11.15;7.60;;;;;;;;;;4961096;28;20203;-83
2021/06/02 17:34:25;;;;;;;8.82;7.10;;;;;;;;;;4961282;28;20235;-83
2021/06/02 17:36:52;;;;;;;9.93;7.35;;;;;;;;;;4961925;28;20622;-81
2021/06/02 17:39:19;;;;;;;12.48;8.02;;;;;;;;;;4969497;28;20566;-82
2021/06/02 17:41:47;;;;;;;11.63;8.32;;;;;;;;;;4956886;28;20359;-83
2021/06/02 17:44:15;;;;;;;9.93;7.90;;;;;;;;;;4953906;28;20288;-83
2021/06/02 17:46:42;;;;;;;11.57;7.35;;;;;;;;;;4951742;28;20257;-84
2021/06/02 17:49:10;;;;;;;10.25;7.30;;;;;;;;;;4967577;28;20244;-83
2021/06/02 17:51:40;;;;;;;8.57;7.20;;;;;;;;;;4971848;28;20223;-84
2021/06/02 17:54:07;;;;;;;7.93;6.97;;;;;;;;;;4972949;28;20237;-84
2021/06/02 17:56:34;;;;;;;8.10;7.18;;;;;;;;;;4971904;28;20212;-84
2021/06/02 17:59:03;;;;;;;10.68;6.95;;;;;;;;;;4962996;28;20251;-84
2021/06/02 18:01:29;;;;;;;9.52;6.85;;;;;;;;;;4953189;28;20585;-84
2021/06/02 18:03:56;;;;;;;8.73;7.15;;;;;;;;;;4960345;28;20252;-83
2021/06/02 18:06:23;;;;;;;9.77;7.53;;;;;;;;;;4958338;28;20239;-83
2021/06/02 18:08:52;;;;;;;10.40;7.57;;;;;;;;;;4968288;28;20234;-85
2021/06/02 18:11:20;;;;;;;8.20;7.40;;;;;;;;;;4972782;28;20241;-83
2021/06/02 18:13:48;;;;;;;10.40;8.00;;;;;;;;;;4959457;28;20211;-82
2021/06/02 18:16:17;;;;;;;12.32;8.00;;;;;;;;;;4953742;28;20231;-83
2021/06/02 18:18:50;;;;;;;9.07;7.63;;;;;;;;;;4965405;28;20198;-84
2021/06/02 18:21:20;;;;;;;10.00;7.65;;;;;;;;;;4971055;28;20667;-84
2021/06/02 18:23:47;;;;;;;9.05;7.25;;;;;;;;;;4964229;28;21211;-83
2021/06/02 18:26:15;;;;;;;8.65;7.32;;;;;;;;;;4970288;28;20807;-83
2021/06/02 18:28:42;;;;;;;9.48;7.32;;;;;;;;;;4968204;28;20228;-83
2021/06/02 18:31:12;;;;;;;9.65;8.00;;;;;;;;;;4968217;28;20286;-83
2021/06/02 18:33:40;;;;;;;10.65;8.10;;;;;;;;;;4961397;28;20202;-83
2021/06/02 18:36:11;;;;;;;8.63;7.22;;;;;;;;;;4972206;28;20241;-82
2021/06/02 18:38:40;;;;;;;10.35;7.63;;;;;;;;;;4964121;28;20190;-82
2021/06/02 18:41:08;;;;;;;12.65;8.02;;;;;;;;;;4964636;28;20202;-83
2021/06/02 18:43:35;;;;;;;10.30;7.82;;;;;;;;;;4969105;28;20637;-83
2021/06/02 18:46:02;;;;;;;11.20;8.38;;;;;;;;;;4959974;28;20203;-84
2021/06/02 18:48:29;;;;;;;10.35;8.13;;;;;;;;;;4969352;28;20254;-83
2021/06/02 18:50:58;;;;;;;10.38;7.72;;;;;;;;;;4965121;28;20266;-83
2021/06/02 18:53:24;;;;;;;11.77;8.25;;;;;;;;;;4961164;28;20211;-83
2021/06/02 18:55:51;;;;;;;10.40;8.20;;;;;;;;;;4961546;28;20720;-83
2021/06/02 18:58:18;;;;;;;10.27;8.93;;;;;;;;;;4964740;28;20286;-84